Search for airport 
image banner adimage banner ad
image banner ad

VNCG - Chandragadhi

Located in Bhadrapur, Nepal

ICAO - VNCG, IATA - BDP

Data provided by Airmate  

General information

Coordinates: N26°34'11" E88°4'38"
Elevation is 312 feet MSL.
 
View others Airports in Mechi

Operational data

Open for public use
Current time UTC:
Current local time:
Weather at : VEBD - Bagdogra ( 28 km )
TAF: TAF VEBD 040330Z 0406/0418 VRB02KT 6000 SCT030 SCT100 BECMG 0412/0414 5000 HZ
View NOTAMs / SUP AIP / TFR affecting this airport [VIEW]
Communications frequencies: [VIEW]

Runways:

RWY identifierQFULength (ft)Width (ft)SurfaceLDA (ft)
10100°492198ASP
28280°492198

Airport contact information

Address: Bhadrapur Nepal

Satellite view of VNCG